createdAt,value
2018-07-13T00:00:59.241Z,99.90
2018-07-13T00:03:29.962Z,99.90
2018-07-13T00:06:00.052Z,99.90
2018-07-13T00:08:29.055Z,99.90
2018-07-13T00:13:28.413Z,99.90
2018-07-13T00:16:03.509Z,99.90
2018-07-13T00:18:33.959Z,99.90
2018-07-13T00:21:10.231Z,99.90
2018-07-13T00:23:39.938Z,99.90
2018-07-13T00:26:10.908Z,99.90
2018-07-13T00:28:41.870Z,99.90
2018-07-13T00:36:25.935Z,99.90
2018-07-13T00:38:58.208Z,99.90
2018-07-13T00:41:36.352Z,99.90
2018-07-13T00:46:36.053Z,99.90
2018-07-13T00:49:05.055Z,99.90
2018-07-13T00:51:34.857Z,99.90
2018-07-13T00:54:05.193Z,99.90
2018-07-13T00:56:34.586Z,99.90
2018-07-13T00:59:03.681Z,99.90
2018-07-13T01:01:32.927Z,99.90
2018-07-13T01:04:03.710Z,99.90
2018-07-13T01:06:32.618Z,99.90
2018-07-13T01:09:01.746Z,99.90
2018-07-13T01:11:31.594Z,99.90
2018-07-13T01:14:00.856Z,99.90
2018-07-13T01:16:30.076Z,99.90
2018-07-13T01:18:59.235Z,99.90
2018-07-13T01:23:58.969Z,99.90
2018-07-13T01:26:28.339Z,99.90
2018-07-13T01:28:57.487Z,99.90
2018-07-13T01:31:30.730Z,99.90
2018-07-13T01:34:00.185Z,99.90
2018-07-13T01:36:35.516Z,99.90
2018-07-13T01:39:06.132Z,99.90
2018-07-13T01:44:54.320Z,99.90
2018-07-13T01:47:24.492Z,99.90
2018-07-13T01:49:53.730Z,99.90
2018-07-13T01:52:23.957Z,99.90
2018-07-13T01:57:21.905Z,99.90
2018-07-13T01:59:50.977Z,99.90
2018-07-13T02:02:20.085Z,99.90
2018-07-13T02:04:49.056Z,99.90
2018-07-13T02:07:18.856Z,99.90
2018-07-13T02:09:48.078Z,99.90
2018-07-13T02:12:17.961Z,99.90
2018-07-13T02:14:47.351Z,99.90
2018-07-13T02:17:16.853Z,99.90
2018-07-13T02:19:46.276Z,99.90
2018-07-13T02:22:15.368Z,99.90
2018-07-13T02:24:45.332Z,99.90
2018-07-13T02:27:16.308Z,99.90
2018-07-13T02:32:14.052Z,99.90
2018-07-13T02:34:43.092Z,99.90
2018-07-13T02:37:12.240Z,99.90
2018-07-13T02:39:42.029Z,99.90
2018-07-13T02:42:14.740Z,99.90
2018-07-13T02:44:43.860Z,99.90
2018-07-13T02:47:12.726Z,99.90
2018-07-13T02:49:42.478Z,99.90
2018-07-13T02:52:11.494Z,99.90
2018-07-13T02:54:46.122Z,99.90
2018-07-13T02:57:15.186Z,99.90
2018-07-13T02:59:44.325Z,99.90
2018-07-13T03:02:13.585Z,99.90
2018-07-13T03:04:43.345Z,99.90
2018-07-13T03:07:12.638Z,99.90
2018-07-13T03:09:42.123Z,99.90
2018-07-13T03:12:11.379Z,99.90
2018-07-13T03:14:40.765Z,99.90
2018-07-13T03:17:09.799Z,99.90
2018-07-13T03:19:38.798Z,99.90
2018-07-13T03:22:08.493Z,99.90
2018-07-13T03:24:38.233Z,99.90
2018-07-13T03:27:07.588Z,99.90
2018-07-13T03:29:36.756Z,99.90
2018-07-13T03:32:05.915Z,99.90
2018-07-13T03:34:35.002Z,99.90
2018-07-13T03:37:04.603Z,99.90
2018-07-13T03:39:34.331Z,99.90
2018-07-13T03:42:03.572Z,99.90
2018-07-13T03:44:32.660Z,99.90
2018-07-13T03:47:01.731Z,99.90
2018-07-13T03:49:31.929Z,99.90
2018-07-13T03:54:30.470Z,99.90
2018-07-13T03:57:00.035Z,99.90
2018-07-13T03:59:29.297Z,99.90
2018-07-13T04:01:58.484Z,99.90
2018-07-13T04:04:28.872Z,99.90
2018-07-13T04:06:58.484Z,99.90
2018-07-13T04:09:27.690Z,99.90
2018-07-13T04:11:56.873Z,99.90
2018-07-13T04:14:26.137Z,99.90
2018-07-13T04:19:24.466Z,99.90
2018-07-13T04:21:53.819Z,99.90
2018-07-13T04:24:23.351Z,99.90
2018-07-13T04:26:53.391Z,99.90
2018-07-13T04:29:22.797Z,99.90
2018-07-13T04:31:52.071Z,99.90
2018-07-13T04:34:21.025Z,99.90
2018-07-13T04:36:50.262Z,99.90
2018-07-13T04:39:19.303Z,99.90
2018-07-13T04:41:49.411Z,99.90
2018-07-13T04:44:18.475Z,99.90
2018-07-13T04:46:47.657Z,99.90
2018-07-13T04:49:17.600Z,99.90
2018-07-13T04:51:48.233Z,99.90
2018-07-13T04:54:17.738Z,99.90
2018-07-13T04:56:47.041Z,99.90
2018-07-13T04:59:16.298Z,99.90
2018-07-13T05:01:48.028Z,99.90
2018-07-13T05:04:17.493Z,99.90
2018-07-13T05:09:17.133Z,99.90
2018-07-13T05:11:46.286Z,99.90
2018-07-13T05:16:44.340Z,99.90
2018-07-13T05:19:13.692Z,99.90
2018-07-13T05:21:43.604Z,99.90
2018-07-13T05:24:12.762Z,99.90
2018-07-13T05:26:42.122Z,99.90
2018-07-13T05:29:11.239Z,99.90
2018-07-13T05:31:40.968Z,99.90
2018-07-13T05:34:10.826Z,99.90
2018-07-13T05:36:40.804Z,99.90
2018-07-13T05:39:12.485Z,99.90
2018-07-13T05:41:41.877Z,99.90
2018-07-13T05:44:11.191Z,99.90
2018-07-13T05:46:40.732Z,99.90
2018-07-13T05:49:09.925Z,99.90
2018-07-13T05:51:39.817Z,99.90
2018-07-13T05:54:08.982Z,99.90
2018-07-13T05:56:39.157Z,99.90
2018-07-13T05:59:09.832Z,99.90
2018-07-13T06:01:44.744Z,99.90
2018-07-13T06:04:26.228Z,99.90
2018-07-13T06:06:55.777Z,99.90
2018-07-13T06:09:24.767Z,99.90
2018-07-13T06:11:53.820Z,99.90
2018-07-13T06:14:26.524Z,99.90
2018-07-13T06:16:55.830Z,99.90
2018-07-13T06:19:24.832Z,99.90
2018-07-13T06:21:56.321Z,99.90
2018-07-13T06:24:25.447Z,99.90
2018-07-13T06:27:01.795Z,99.90
2018-07-13T06:29:31.815Z,99.90
2018-07-13T06:32:01.420Z,98.20
2018-07-13T06:34:30.355Z,95.20
2018-07-13T06:36:59.340Z,92.90
2018-07-13T06:39:28.882Z,92.40
2018-07-13T06:41:58.450Z,88.20
2018-07-13T06:45:39.750Z,84.10
2018-07-13T06:48:10.741Z,84.50
2018-07-13T06:50:39.887Z,84.20
2018-07-13T06:53:11.300Z,82.30
2018-07-13T06:55:40.330Z,77.50
2018-07-13T06:58:20.301Z,80.70
2018-07-13T07:01:10.876Z,83.80
2018-07-13T07:04:55.393Z,85.90
2018-07-13T07:07:27.644Z,84.70
2018-07-13T07:10:03.976Z,79.50
2018-07-13T07:12:43.189Z,77.50
2018-07-13T07:15:13.562Z,77.50
2018-07-13T07:17:42.872Z,74.90
2018-07-13T07:20:12.780Z,70.50
2018-07-13T07:23:17.182Z,67.40
2018-07-13T07:26:07.400Z,67.70
2018-07-13T07:32:02.954Z,66.40
2018-07-13T07:34:39.294Z,66.60
2018-07-13T07:37:17.906Z,70.60
2018-07-13T07:46:29.298Z,73.30
2018-07-13T07:49:18.634Z,70.70
2018-07-13T07:52:17.133Z,65.60
2018-07-13T07:58:34.424Z,60.10
2018-07-13T08:09:26.542Z,54.00
2018-07-13T17:23:59.379Z,35.80
2018-07-13T17:29:04.361Z,36.60
2018-07-13T17:31:35.438Z,36.60
2018-07-13T17:34:08.755Z,36.40
2018-07-13T17:39:16.583Z,36.70
2018-07-13T17:41:50.045Z,36.50
2018-07-13T17:44:19.826Z,36.30
2018-07-13T17:46:48.950Z,36.60
2018-07-13T17:49:22.167Z,36.70
2018-07-13T17:51:52.385Z,37.20
2018-07-13T17:54:33.250Z,36.60
2018-07-13T17:57:04.241Z,36.70
2018-07-13T17:59:33.618Z,36.60
2018-07-13T18:02:05.985Z,36.60
2018-07-13T18:04:36.172Z,37.10
2018-07-13T18:07:08.636Z,37.30
2018-07-13T18:09:41.682Z,37.40
2018-07-13T18:12:28.994Z,37.00
2018-07-13T18:15:02.398Z,37.20
2018-07-13T18:17:34.469Z,37.20
2018-07-13T18:20:05.385Z,37.20
2018-07-13T18:22:42.533Z,37.50
2018-07-13T18:25:25.053Z,37.40
2018-07-13T18:27:57.456Z,38.60
2018-07-13T18:30:28.627Z,37.80
2018-07-13T18:33:00.226Z,38.80
2018-07-13T18:35:36.983Z,39.00
2018-07-13T18:38:08.484Z,38.60
2018-07-13T18:40:56.713Z,39.60
2018-07-13T18:43:47.473Z,39.70
2018-07-13T18:46:21.782Z,39.80
2018-07-13T18:49:03.874Z,39.80
2018-07-13T18:51:34.539Z,39.80
2018-07-13T18:54:12.491Z,39.70
2018-07-13T18:56:42.203Z,39.50
2018-07-13T18:59:21.168Z,39.80
2018-07-13T19:01:54.803Z,39.50
2018-07-13T19:04:24.782Z,39.50
2018-07-13T19:06:56.390Z,39.70
2018-07-13T19:09:28.053Z,39.90
2018-07-13T19:12:07.373Z,40.50
2018-07-13T19:14:47.893Z,41.00
2018-07-13T19:17:18.457Z,40.20
2018-07-13T19:20:00.204Z,39.90
2018-07-13T19:22:41.501Z,40.20
2018-07-13T19:25:12.772Z,40.00
2018-07-13T19:31:44.221Z,40.20
2018-07-13T19:34:23.733Z,39.70
2018-07-13T19:37:09.673Z,40.40
2018-07-13T19:39:56.757Z,40.60
2018-07-13T19:42:54.344Z,40.70
2018-07-13T19:45:27.285Z,41.00
2018-07-13T19:47:59.770Z,40.80
2018-07-13T19:53:23.449Z,41.10
2018-07-13T19:56:22.391Z,42.10
2018-07-13T20:05:12.590Z,43.00
2018-07-13T20:07:58.890Z,43.20
2018-07-13T20:10:52.918Z,43.40
2018-07-13T20:13:27.247Z,42.90
2018-07-13T20:15:57.456Z,43.20
2018-07-13T20:18:33.436Z,43.10
2018-07-13T20:21:05.611Z,43.20
2018-07-13T20:23:36.590Z,43.40
2018-07-13T20:26:07.458Z,43.50
2018-07-13T20:28:41.777Z,43.80
2018-07-13T20:31:22.634Z,44.00
2018-07-13T20:33:52.303Z,44.00
2018-07-13T20:36:23.214Z,44.40
2018-07-13T20:39:20.134Z,44.50
2018-07-13T20:42:10.143Z,44.40
2018-07-13T20:44:51.611Z,45.30
2018-07-13T20:47:25.130Z,45.20
2018-07-13T20:49:59.214Z,45.10
2018-07-13T20:52:46.756Z,45.10
2018-07-13T20:55:18.313Z,46.00
2018-07-13T20:57:51.353Z,46.80
2018-07-13T21:02:52.233Z,46.40
2018-07-13T21:05:29.185Z,47.00
2018-07-13T21:07:58.802Z,47.00
2018-07-13T21:10:29.196Z,46.60
2018-07-13T21:13:33.658Z,46.70
2018-07-13T21:16:09.013Z,47.20
2018-07-13T21:18:41.011Z,47.40
2018-07-13T21:21:42.856Z,47.90
2018-07-13T21:24:44.824Z,48.10
2018-07-13T21:27:17.488Z,48.60
2018-07-13T21:29:51.027Z,49.30
2018-07-13T21:32:51.753Z,49.30
2018-07-13T21:35:37.084Z,49.80
2018-07-13T21:38:25.608Z,49.40
2018-07-13T21:40:57.195Z,49.90
2018-07-13T21:43:30.417Z,50.60
2018-07-13T21:46:08.567Z,50.90
2018-07-13T21:48:56.465Z,51.30
2018-07-13T21:51:48.084Z,52.00
2018-07-13T21:57:26.639Z,53.60
2018-07-13T22:00:12.451Z,54.60
2018-07-13T22:03:00.122Z,55.80
2018-07-13T22:05:53.539Z,55.70
2018-07-13T22:08:37.019Z,56.50
2018-07-13T22:11:28.814Z,57.10
2018-07-13T22:14:21.081Z,57.30
2018-07-13T22:17:06.899Z,58.00
2018-07-13T22:19:48.766Z,58.30
2018-07-13T22:22:25.437Z,58.30
2018-07-13T22:25:13.024Z,58.90
2018-07-13T22:27:51.306Z,59.40
2018-07-13T22:30:33.770Z,59.80
2018-07-13T22:39:26.795Z,61.50
2018-07-13T22:41:58.979Z,62.30
2018-07-13T22:44:44.311Z,62.60
2018-07-13T22:47:20.497Z,63.20
2018-07-13T22:53:04.638Z,64.60
2018-07-13T22:55:54.624Z,65.20
2018-07-13T22:58:36.018Z,66.50
2018-07-13T23:01:22.085Z,65.70
2018-07-13T23:03:51.744Z,66.40
2018-07-13T23:09:30.469Z,67.90
2018-07-13T23:11:59.753Z,68.50
2018-07-13T23:14:33.404Z,68.90
2018-07-13T23:19:47.314Z,70.20
2018-07-13T23:22:46.916Z,71.00
2018-07-13T23:25:23.694Z,72.00
2018-07-13T23:27:52.747Z,72.30
2018-07-13T23:30:24.086Z,72.30
2018-07-13T23:33:02.104Z,72.70
2018-07-13T23:35:41.170Z,73.10
2018-07-13T23:38:26.340Z,73.20
2018-07-13T23:40:57.699Z,73.80
2018-07-13T23:43:27.344Z,75.00
2018-07-13T23:45:57.720Z,75.30
2018-07-13T23:48:30.649Z,75.90
2018-07-13T23:51:02.792Z,76.40
2018-07-13T23:53:33.774Z,77.10
2018-07-13T23:56:05.802Z,78.30
2018-07-13T23:58:37.541Z,78.60
